sensor_id;sensor_type;location;lat;lon;timestamp;temperature;humidity
26051;DHT22;13825;53.496;10.020;2023-05-07T00:01:15;8.70;99.90
26051;DHT22;13825;53.496;10.020;2023-05-07T00:03:43;8.70;99.90
26051;DHT22;13825;53.496;10.020;2023-05-07T00:06:10;8.70;99.90
26051;DHT22;13825;53.496;10.020;2023-05-07T00:08:38;8.70;99.90
26051;DHT22;13825;53.496;10.020;2023-05-07T00:11:05;8.70;99.90
26051;DHT22;13825;53.496;10.020;2023-05-07T00:13:32;8.80;99.90
26051;DHT22;13825;53.496;10.020;2023-05-07T00:16:01;8.80;99.90
26051;DHT22;13825;53.496;10.020;2023-05-07T00:18:27;8.60;99.90
26051;DHT22;13825;53.496;10.020;2023-05-07T00:20:56;8.70;99.90
26051;DHT22;13825;53.496;10.020;2023-05-07T00:23:23;8.60;99.90
26051;DHT22;13825;53.496;10.020;2023-05-07T00:25:50;8.70;99.90
26051;DHT22;13825;53.496;10.020;2023-05-07T00:28:17;8.70;99.90
26051;DHT22;13825;53.496;10.020;2023-05-07T00:30:44;8.70;99.90
26051;DHT22;13825;53.496;10.020;2023-05-07T00:33:10;8.70;99.90
26051;DHT22;13825;53.496;10.020;2023-05-07T00:35:37;8.60;99.90
26051;DHT22;13825;53.496;10.020;2023-05-07T00:38:06;8.60;99.90
26051;DHT22;13825;53.496;10.020;2023-05-07T00:40:32;8.60;99.90
26051;DHT22;13825;53.496;10.020;2023-05-07T00:43:00;8.70;99.90
26051;DHT22;13825;53.496;10.020;2023-05-07T00:45:28;8.60;99.90
26051;DHT22;13825;53.496;10.020;2023-05-07T00:47:56;8.70;99.90
26051;DHT22;13825;53.496;10.020;2023-05-07T00:50:24;8.70;99.90
26051;DHT22;13825;53.496;10.020;2023-05-07T00:52:52;8.60;99.90
26051;DHT22;13825;53.496;10.020;2023-05-07T00:55:21;8.60;99.90
26051;DHT22;13825;53.496;10.020;2023-05-07T00:57:49;8.70;99.90
26051;DHT22;13825;53.496;10.020;2023-05-07T01:00:17;8.70;99.90
26051;DHT22;13825;53.496;10.020;2023-05-07T01:02:45;8.60;99.90
26051;DHT22;13825;53.496;10.020;2023-05-07T01:05:15;8.70;99.90
26051;DHT22;13825;53.496;10.020;2023-05-07T01:07:43;8.80;99.90
26051;DHT22;13825;53.496;10.020;2023-05-07T01:10:11;8.60;99.90
26051;DHT22;13825;53.496;10.020;2023-05-07T01:12:40;8.70;99.90
26051;DHT22;13825;53.496;10.020;2023-05-07T01:15:09;8.80;99.90
26051;DHT22;13825;53.496;10.020;2023-05-07T01:17:37;8.70;99.90
26051;DHT22;13825;53.496;10.020;2023-05-07T01:20:05;8.80;99.90
26051;DHT22;13825;53.496;10.020;2023-05-07T01:22:35;8.70;99.90
26051;DHT22;13825;53.496;10.020;2023-05-07T01:25:04;8.70;99.90
26051;DHT22;13825;53.496;10.020;2023-05-07T01:27:31;8.70;99.90
26051;DHT22;13825;53.496;10.020;2023-05-07T01:29:59;8.70;99.90
26051;DHT22;13825;53.496;10.020;2023-05-07T01:32:29;8.70;99.90
26051;DHT22;13825;53.496;10.020;2023-05-07T01:34:57;8.70;99.90
26051;DHT22;13825;53.496;10.020;2023-05-07T01:37:25;8.70;99.90
26051;DHT22;13825;53.496;10.020;2023-05-07T01:39:54;8.70;99.90
26051;DHT22;13825;53.496;10.020;2023-05-07T01:42:21;8.70;99.90
26051;DHT22;13825;53.496;10.020;2023-05-07T01:44:48;8.70;99.90
26051;DHT22;13825;53.496;10.020;2023-05-07T01:47:16;8.70;99.90
26051;DHT22;13825;53.496;10.020;2023-05-07T01:49:43;8.70;99.90
26051;DHT22;13825;53.496;10.020;2023-05-07T01:52:10;8.70;99.90
26051;DHT22;13825;53.496;10.020;2023-05-07T01:54:38;8.70;99.90
26051;DHT22;13825;53.496;10.020;2023-05-07T01:57:06;8.70;99.90
26051;DHT22;13825;53.496;10.020;2023-05-07T01:59:33;8.70;99.90
26051;DHT22;13825;53.496;10.020;2023-05-07T02:02:00;8.70;99.90
26051;DHT22;13825;53.496;10.020;2023-05-07T02:04:27;8.70;99.90
26051;DHT22;13825;53.496;10.020;2023-05-07T02:06:54;8.70;99.90
26051;DHT22;13825;53.496;10.020;2023-05-07T02:09:21;8.70;99.90
26051;DHT22;13825;53.496;10.020;2023-05-07T02:11:48;8.70;99.90
26051;DHT22;13825;53.496;10.020;2023-05-07T02:14:16;8.70;99.90
26051;DHT22;13825;53.496;10.020;2023-05-07T02:16:43;8.70;99.90
26051;DHT22;13825;53.496;10.020;2023-05-07T02:19:10;8.70;99.90
26051;DHT22;13825;53.496;10.020;2023-05-07T02:21:37;8.70;99.90
26051;DHT22;13825;53.496;10.020;2023-05-07T02:24:04;8.70;99.90
26051;DHT22;13825;53.496;10.020;2023-05-07T02:26:31;8.70;99.90
26051;DHT22;13825;53.496;10.020;2023-05-07T02:28:59;8.70;99.90
26051;DHT22;13825;53.496;10.020;2023-05-07T02:31:27;8.80;99.90
26051;DHT22;13825;53.496;10.020;2023-05-07T02:33:54;8.70;99.90
26051;DHT22;13825;53.496;10.020;2023-05-07T02:36:21;8.80;99.90
26051;DHT22;13825;53.496;10.020;2023-05-07T02:38:48;8.80;99.90
26051;DHT22;13825;53.496;10.020;2023-05-07T02:41:15;8.70;99.90
26051;DHT22;13825;53.496;10.020;2023-05-07T02:43:42;8.70;99.90
26051;DHT22;13825;53.496;10.020;2023-05-07T02:46:09;8.70;99.90
26051;DHT22;13825;53.496;10.020;2023-05-07T02:48:38;8.70;99.90
26051;DHT22;13825;53.496;10.020;2023-05-07T02:51:05;8.70;99.90
26051;DHT22;13825;53.496;10.020;2023-05-07T02:53:32;8.80;99.90
26051;DHT22;13825;53.496;10.020;2023-05-07T02:56:00;8.70;99.90
26051;DHT22;13825;53.496;10.020;2023-05-07T02:58:27;8.70;99.90
26051;DHT22;13825;53.496;10.020;2023-05-07T03:00:54;8.70;99.90
26051;DHT22;13825;53.496;10.020;2023-05-07T03:03:23;8.80;99.90
26051;DHT22;13825;53.496;10.020;2023-05-07T03:05:51;8.80;99.90
26051;DHT22;13825;53.496;10.020;2023-05-07T03:08:18;8.80;99.90
26051;DHT22;13825;53.496;10.020;2023-05-07T03:10:45;8.90;99.90
26051;DHT22;13825;53.496;10.020;2023-05-07T03:13:12;8.70;99.90
26051;DHT22;13825;53.496;10.020;2023-05-07T03:15:39;8.70;99.90
26051;DHT22;13825;53.496;10.020;2023-05-07T03:18:06;8.70;99.90
26051;DHT22;13825;53.496;10.020;2023-05-07T03:20:33;8.70;99.90
26051;DHT22;13825;53.496;10.020;2023-05-07T03:23:03;8.70;99.90
26051;DHT22;13825;53.496;10.020;2023-05-07T03:25:30;8.70;99.90
26051;DHT22;13825;53.496;10.020;2023-05-07T03:27:57;8.90;99.90
26051;DHT22;13825;53.496;10.020;2023-05-07T03:30:24;8.70;99.90
26051;DHT22;13825;53.496;10.020;2023-05-07T03:32:51;8.70;99.90
26051;DHT22;13825;53.496;10.020;2023-05-07T03:35:19;8.70;99.90
26051;DHT22;13825;53.496;10.020;2023-05-07T03:37:46;8.60;99.90
26051;DHT22;13825;53.496;10.020;2023-05-07T03:40:15;8.60;99.90
26051;DHT22;13825;53.496;10.020;2023-05-07T03:42:42;8.60;99.90
26051;DHT22;13825;53.496;10.020;2023-05-07T03:45:09;8.70;99.90
26051;DHT22;13825;53.496;10.020;2023-05-07T03:47:36;8.70;99.90
26051;DHT22;13825;53.496;10.020;2023-05-07T03:50:03;8.70;99.90
26051;DHT22;13825;53.496;10.020;2023-05-07T03:52:30;8.70;99.90
26051;DHT22;13825;53.496;10.020;2023-05-07T03:54:57;8.60;99.90
26051;DHT22;13825;53.496;10.020;2023-05-07T03:57:25;8.70;99.90
26051;DHT22;13825;53.496;10.020;2023-05-07T03:59:52;8.80;99.90
26051;DHT22;13825;53.496;10.020;2023-05-07T04:02:19;8.60;99.90
26051;DHT22;13825;53.496;10.020;2023-05-07T04:04:47;8.60;99.90
26051;DHT22;13825;53.496;10.020;2023-05-07T04:07:14;8.60;99.90
26051;DHT22;13825;53.496;10.020;2023-05-07T04:09:41;8.70;99.90
26051;DHT22;13825;53.496;10.020;2023-05-07T04:12:08;8.60;99.90
26051;DHT22;13825;53.496;10.020;2023-05-07T04:14:37;8.60;99.90
26051;DHT22;13825;53.496;10.020;2023-05-07T04:17:03;8.60;99.90
26051;DHT22;13825;53.496;10.020;2023-05-07T04:19:33;8.70;99.90
26051;DHT22;13825;53.496;10.020;2023-05-07T04:22:00;8.70;99.90
26051;DHT22;13825;53.496;10.020;2023-05-07T04:24:27;8.70;99.90
26051;DHT22;13825;53.496;10.020;2023-05-07T04:26:54;8.70;99.90
26051;DHT22;13825;53.496;10.020;2023-05-07T04:29:20;8.80;99.90
26051;DHT22;13825;53.496;10.020;2023-05-07T04:31:49;8.70;99.90
26051;DHT22;13825;53.496;10.020;2023-05-07T04:34:16;8.80;99.90
26051;DHT22;13825;53.496;10.020;2023-05-07T04:36:43;8.80;99.90
26051;DHT22;13825;53.496;10.020;2023-05-07T04:39:13;8.70;99.90
26051;DHT22;13825;53.496;10.020;2023-05-07T04:41:40;8.80;99.90
26051;DHT22;13825;53.496;10.020;2023-05-07T04:44:07;8.80;99.90
26051;DHT22;13825;53.496;10.020;2023-05-07T04:46:34;8.80;99.90
26051;DHT22;13825;53.496;10.020;2023-05-07T04:49:03;8.90;99.90
26051;DHT22;13825;53.496;10.020;2023-05-07T04:51:31;8.90;99.90
26051;DHT22;13825;53.496;10.020;2023-05-07T04:53:58;8.90;99.90
26051;DHT22;13825;53.496;10.020;2023-05-07T04:56:27;9.00;99.90
26051;DHT22;13825;53.496;10.020;2023-05-07T04:58:55;8.90;99.90
26051;DHT22;13825;53.496;10.020;2023-05-07T05:01:22;9.10;99.90
26051;DHT22;13825;53.496;10.020;2023-05-07T05:03:51;8.90;99.90
26051;DHT22;13825;53.496;10.020;2023-05-07T05:06:19;9.00;99.90
26051;DHT22;13825;53.496;10.020;2023-05-07T05:08:46;9.00;99.90
26051;DHT22;13825;53.496;10.020;2023-05-07T05:11:13;9.00;99.90
26051;DHT22;13825;53.496;10.020;2023-05-07T05:13:40;9.10;99.90
26051;DHT22;13825;53.496;10.020;2023-05-07T05:16:07;9.10;99.90
26051;DHT22;13825;53.496;10.020;2023-05-07T05:18:34;9.10;99.90
26051;DHT22;13825;53.496;10.020;2023-05-07T05:21:02;9.10;99.90
26051;DHT22;13825;53.496;10.020;2023-05-07T05:23:30;9.10;99.90
26051;DHT22;13825;53.496;10.020;2023-05-07T05:25:57;9.10;99.90
26051;DHT22;13825;53.496;10.020;2023-05-07T05:28:24;9.10;99.90
26051;DHT22;13825;53.496;10.020;2023-05-07T05:30:51;9.10;99.90
26051;DHT22;13825;53.496;10.020;2023-05-07T05:33:18;9.10;99.90
26051;DHT22;13825;53.496;10.020;2023-05-07T05:35:45;9.10;99.90
26051;DHT22;13825;53.496;10.020;2023-05-07T05:38:12;9.00;99.90
26051;DHT22;13825;53.496;10.020;2023-05-07T05:40:41;9.10;99.90
26051;DHT22;13825;53.496;10.020;2023-05-07T05:43:08;8.90;99.90
26051;DHT22;13825;53.496;10.020;2023-05-07T05:45:34;9.00;99.90
26051;DHT22;13825;53.496;10.020;2023-05-07T05:48:01;9.10;99.90
26051;DHT22;13825;53.496;10.020;2023-05-07T05:50:28;9.10;99.90
26051;DHT22;13825;53.496;10.020;2023-05-07T05:52:55;9.10;99.90
26051;DHT22;13825;53.496;10.020;2023-05-07T05:55:23;9.10;99.90
26051;DHT22;13825;53.496;10.020;2023-05-07T05:57:51;9.20;99.90
26051;DHT22;13825;53.496;10.020;2023-05-07T06:00:18;9.20;99.90
26051;DHT22;13825;53.496;10.020;2023-05-07T06:02:48;9.30;99.90
26051;DHT22;13825;53.496;10.020;2023-05-07T06:05:15;9.30;99.90
26051;DHT22;13825;53.496;10.020;2023-05-07T06:07:42;9.30;99.90
26051;DHT22;13825;53.496;10.020;2023-05-07T06:10:09;9.40;99.90
26051;DHT22;13825;53.496;10.020;2023-05-07T06:12:37;9.50;99.90
26051;DHT22;13825;53.496;10.020;2023-05-07T06:15:07;9.50;99.90
26051;DHT22;13825;53.496;10.020;2023-05-07T06:17:38;9.60;99.90
26051;DHT22;13825;53.496;10.020;2023-05-07T06:20:08;9.60;99.90
26051;DHT22;13825;53.496;10.020;2023-05-07T06:22:35;9.50;99.90
26051;DHT22;13825;53.496;10.020;2023-05-07T06:25:02;9.60;99.90
26051;DHT22;13825;53.496;10.020;2023-05-07T06:27:29;9.60;99.90
26051;DHT22;13825;53.496;10.020;2023-05-07T06:29:56;9.70;99.90
26051;DHT22;13825;53.496;10.020;2023-05-07T06:32:25;9.60;99.90
26051;DHT22;13825;53.496;10.020;2023-05-07T06:34:52;9.60;99.90
26051;DHT22;13825;53.496;10.020;2023-05-07T06:37:19;9.70;99.90
26051;DHT22;13825;53.496;10.020;2023-05-07T06:39:48;9.70;99.90
26051;DHT22;13825;53.496;10.020;2023-05-07T06:42:15;9.70;99.90
26051;DHT22;13825;53.496;10.020;2023-05-07T06:44:42;9.80;99.90
26051;DHT22;13825;53.496;10.020;2023-05-07T06:47:09;9.80;99.90
26051;DHT22;13825;53.496;10.020;2023-05-07T06:49:37;9.80;99.90
26051;DHT22;13825;53.496;10.020;2023-05-07T06:52:04;9.80;99.90
26051;DHT22;13825;53.496;10.020;2023-05-07T06:54:31;9.90;99.90
26051;DHT22;13825;53.496;10.020;2023-05-07T06:56:58;10.00;99.90
26051;DHT22;13825;53.496;10.020;2023-05-07T06:59:26;9.90;99.90
26051;DHT22;13825;53.496;10.020;2023-05-07T07:01:53;10.00;99.90
26051;DHT22;13825;53.496;10.020;2023-05-07T07:04:20;10.00;99.90
26051;DHT22;13825;53.496;10.020;2023-05-07T07:06:51;10.00;99.90
26051;DHT22;13825;53.496;10.020;2023-05-07T07:09:22;10.00;99.90
26051;DHT22;13825;53.496;10.020;2023-05-07T07:11:49;10.10;99.90
26051;DHT22;13825;53.496;10.020;2023-05-07T07:14:16;10.10;99.90
26051;DHT22;13825;53.496;10.020;2023-05-07T07:16:43;10.10;99.90
26051;DHT22;13825;53.496;10.020;2023-05-07T07:19:10;10.20;99.90
26051;DHT22;13825;53.496;10.020;2023-05-07T07:21:38;10.20;99.90
26051;DHT22;13825;53.496;10.020;2023-05-07T07:24:15;10.30;99.90
26051;DHT22;13825;53.496;10.020;2023-05-07T07:26:46;10.30;99.90
26051;DHT22;13825;53.496;10.020;2023-05-07T07:29:13;10.40;99.90
26051;DHT22;13825;53.496;10.020;2023-05-07T07:31:41;10.50;99.90
26051;DHT22;13825;53.496;10.020;2023-05-07T07:34:08;10.50;99.90
26051;DHT22;13825;53.496;10.020;2023-05-07T07:36:35;10.50;99.90
26051;DHT22;13825;53.496;10.020;2023-05-07T07:39:02;10.50;99.90
26051;DHT22;13825;53.496;10.020;2023-05-07T07:41:30;10.50;99.90
26051;DHT22;13825;53.496;10.020;2023-05-07T07:43:59;10.70;99.90
26051;DHT22;13825;53.496;10.020;2023-05-07T07:46:29;10.80;99.90
26051;DHT22;13825;53.496;10.020;2023-05-07T07:48:59;10.80;99.90
26051;DHT22;13825;53.496;10.020;2023-05-07T07:51:26;10.80;99.90
26051;DHT22;13825;53.496;10.020;2023-05-07T07:53:53;10.80;99.90
26051;DHT22;13825;53.496;10.020;2023-05-07T07:56:20;10.80;99.90
26051;DHT22;13825;53.496;10.020;2023-05-07T07:58:49;10.90;99.90
26051;DHT22;13825;53.496;10.020;2023-05-07T08:01:16;10.90;99.90
26051;DHT22;13825;53.496;10.020;2023-05-07T08:03:43;10.90;99.90
26051;DHT22;13825;53.496;10.020;2023-05-07T08:06:10;11.00;99.90
26051;DHT22;13825;53.496;10.020;2023-05-07T08:08:37;11.00;99.90
26051;DHT22;13825;53.496;10.020;2023-05-07T08:11:04;11.10;99.90
26051;DHT22;13825;53.496;10.020;2023-05-07T08:13:31;11.10;99.90
26051;DHT22;13825;53.496;10.020;2023-05-07T08:16:00;11.10;99.90
26051;DHT22;13825;53.496;10.020;2023-05-07T08:18:27;11.10;99.90
26051;DHT22;13825;53.496;10.020;2023-05-07T08:20:54;10.90;99.90
26051;DHT22;13825;53.496;10.020;2023-05-07T08:23:21;10.80;99.90
26051;DHT22;13825;53.496;10.020;2023-05-07T08:25:50;10.70;99.90
26051;DHT22;13825;53.496;10.020;2023-05-07T08:28:17;10.60;99.90
26051;DHT22;13825;53.496;10.020;2023-05-07T08:30:47;10.60;99.90
26051;DHT22;13825;53.496;10.020;2023-05-07T08:33:15;10.60;99.90
26051;DHT22;13825;53.496;10.020;2023-05-07T08:35:42;10.90;99.90
26051;DHT22;13825;53.496;10.020;2023-05-07T08:38:11;10.80;99.90
26051;DHT22;13825;53.496;10.020;2023-05-07T08:40:39;11.00;99.90
26051;DHT22;13825;53.496;10.020;2023-05-07T08:43:07;11.00;99.90
26051;DHT22;13825;53.496;10.020;2023-05-07T08:45:34;11.10;99.90
26051;DHT22;13825;53.496;10.020;2023-05-07T08:48:03;11.30;99.90
26051;DHT22;13825;53.496;10.020;2023-05-07T08:50:35;11.20;99.90
26051;DHT22;13825;53.496;10.020;2023-05-07T08:53:03;11.40;99.90
26051;DHT22;13825;53.496;10.020;2023-05-07T08:55:30;11.50;99.90
26051;DHT22;13825;53.496;10.020;2023-05-07T08:57:57;11.70;99.90
26051;DHT22;13825;53.496;10.020;2023-05-07T09:00:24;11.90;99.90
26051;DHT22;13825;53.496;10.020;2023-05-07T09:02:52;12.00;99.90
26051;DHT22;13825;53.496;10.020;2023-05-07T09:05:20;11.90;99.90
26051;DHT22;13825;53.496;10.020;2023-05-07T09:07:48;11.70;99.90
26051;DHT22;13825;53.496;10.020;2023-05-07T09:10:16;11.80;99.90
26051;DHT22;13825;53.496;10.020;2023-05-07T09:12:46;12.10;99.90
26051;DHT22;13825;53.496;10.020;2023-05-07T09:15:15;12.10;99.90
26051;DHT22;13825;53.496;10.020;2023-05-07T09:17:43;12.20;99.90
26051;DHT22;13825;53.496;10.020;2023-05-07T09:20:12;12.20;99.90
26051;DHT22;13825;53.496;10.020;2023-05-07T09:22:39;12.20;99.90
26051;DHT22;13825;53.496;10.020;2023-05-07T09:25:08;12.00;99.90
26051;DHT22;13825;53.496;10.020;2023-05-07T09:27:36;12.00;99.90
26051;DHT22;13825;53.496;10.020;2023-05-07T09:30:04;12.20;99.90
26051;DHT22;13825;53.496;10.020;2023-05-07T09:32:35;12.20;99.90
26051;DHT22;13825;53.496;10.020;2023-05-07T09:35:03;12.20;99.90
26051;DHT22;13825;53.496;10.020;2023-05-07T09:37:33;12.30;99.90
26051;DHT22;13825;53.496;10.020;2023-05-07T09:40:00;12.30;99.90
26051;DHT22;13825;53.496;10.020;2023-05-07T09:42:28;12.30;99.90
26051;DHT22;13825;53.496;10.020;2023-05-07T09:44:56;12.30;99.90
26051;DHT22;13825;53.496;10.020;2023-05-07T09:47:24;12.40;99.90
26051;DHT22;13825;53.496;10.020;2023-05-07T09:49:56;12.40;99.90
26051;DHT22;13825;53.496;10.020;2023-05-07T09:52:25;12.50;99.90
26051;DHT22;13825;53.496;10.020;2023-05-07T09:54:59;12.50;99.90
26051;DHT22;13825;53.496;10.020;2023-05-07T09:57:32;12.60;99.90
26051;DHT22;13825;53.496;10.020;2023-05-07T10:00:02;12.60;99.90
26051;DHT22;13825;53.496;10.020;2023-05-07T10:02:35;12.50;99.90
26051;DHT22;13825;53.496;10.020;2023-05-07T10:05:03;12.50;99.90
26051;DHT22;13825;53.496;10.020;2023-05-07T10:07:31;12.40;99.90
26051;DHT22;13825;53.496;10.020;2023-05-07T10:10:01;12.30;99.90
26051;DHT22;13825;53.496;10.020;2023-05-07T10:12:30;12.40;99.90
26051;DHT22;13825;53.496;10.020;2023-05-07T10:15:05;12.50;99.90
26051;DHT22;13825;53.496;10.020;2023-05-07T10:17:35;12.40;99.90
26051;DHT22;13825;53.496;10.020;2023-05-07T10:20:07;12.50;99.90
26051;DHT22;13825;53.496;10.020;2023-05-07T10:22:48;12.30;99.90
26051;DHT22;13825;53.496;10.020;2023-05-07T10:25:22;12.50;99.90
26051;DHT22;13825;53.496;10.020;2023-05-07T10:27:52;12.50;99.90
26051;DHT22;13825;53.496;10.020;2023-05-07T10:30:29;12.40;99.90
26051;DHT22;13825;53.496;10.020;2023-05-07T10:36:01;12.40;99.10
26051;DHT22;13825;53.496;10.020;2023-05-07T10:38:33;12.30;99.90
26051;DHT22;13825;53.496;10.020;2023-05-07T10:41:07;12.40;99.90
26051;DHT22;13825;53.496;10.020;2023-05-07T10:43:40;12.70;99.90
26051;DHT22;13825;53.496;10.020;2023-05-07T10:46:16;12.90;99.90
26051;DHT22;13825;53.496;10.020;2023-05-07T10:49:07;13.00;98.70
26051;DHT22;13825;53.496;10.020;2023-05-07T10:51:36;13.00;97.00
26051;DHT22;13825;53.496;10.020;2023-05-07T10:54:20;12.80;97.20
26051;DHT22;13825;53.496;10.020;2023-05-07T10:56:47;13.00;97.00
26051;DHT22;13825;53.496;10.020;2023-05-07T10:59:41;13.10;96.70
26051;DHT22;13825;53.496;10.020;2023-05-07T11:02:11;13.30;95.40
26051;DHT22;13825;53.496;10.020;2023-05-07T11:04:39;13.40;95.90
26051;DHT22;13825;53.496;10.020;2023-05-07T11:07:24;13.70;95.00
26051;DHT22;13825;53.496;10.020;2023-05-07T11:09:59;14.20;95.00
26051;DHT22;13825;53.496;10.020;2023-05-07T11:12:49;14.50;93.10
26051;DHT22;13825;53.496;10.020;2023-05-07T11:15:38;14.70;94.00
26051;DHT22;13825;53.496;10.020;2023-05-07T11:18:07;14.70;90.90
26051;DHT22;13825;53.496;10.020;2023-05-07T11:20:58;14.60;91.70
26051;DHT22;13825;53.496;10.020;2023-05-07T11:26:47;14.60;92.80
26051;DHT22;13825;53.496;10.020;2023-05-07T11:29:16;14.80;93.40
26051;DHT22;13825;53.496;10.020;2023-05-07T11:31:48;14.90;92.50
26051;DHT22;13825;53.496;10.020;2023-05-07T11:34:21;15.20;91.20
26051;DHT22;13825;53.496;10.020;2023-05-07T11:36:49;15.30;87.80
26051;DHT22;13825;53.496;10.020;2023-05-07T11:39:29;15.40;86.20
26051;DHT22;13825;53.496;10.020;2023-05-07T11:41:57;15.50;84.10
26051;DHT22;13825;53.496;10.020;2023-05-07T11:44:24;15.60;86.60
26051;DHT22;13825;53.496;10.020;2023-05-07T11:46:52;16.10;81.50
26051;DHT22;13825;53.496;10.020;2023-05-07T11:49:19;16.20;83.40
26051;DHT22;13825;53.496;10.020;2023-05-07T11:51:49;16.10;78.50
26051;DHT22;13825;53.496;10.020;2023-05-07T11:54:19;16.00;81.20
26051;DHT22;13825;53.496;10.020;2023-05-07T11:56:50;16.00;79.40
26051;DHT22;13825;53.496;10.020;2023-05-07T11:59:22;15.70;76.90
26051;DHT22;13825;53.496;10.020;2023-05-07T12:02:01;15.50;76.80
26051;DHT22;13825;53.496;10.020;2023-05-07T12:04:33;15.60;81.10
26051;DHT22;13825;53.496;10.020;2023-05-07T12:07:01;15.80;80.70
26051;DHT22;13825;53.496;10.020;2023-05-07T12:09:32;16.00;78.90
26051;DHT22;13825;53.496;10.020;2023-05-07T12:12:03;16.50;81.40
26051;DHT22;13825;53.496;10.020;2023-05-07T12:14:37;17.00;82.70
26051;DHT22;13825;53.496;10.020;2023-05-07T12:17:07;16.70;73.50
26051;DHT22;13825;53.496;10.020;2023-05-07T12:19:36;16.30;71.40
26051;DHT22;13825;53.496;10.020;2023-05-07T12:22:08;16.20;72.60
26051;DHT22;13825;53.496;10.020;2023-05-07T12:24:47;16.00;78.30
26051;DHT22;13825;53.496;10.020;2023-05-07T12:27:28;16.10;77.30
26051;DHT22;13825;53.496;10.020;2023-05-07T12:29:57;16.10;79.40
26051;DHT22;13825;53.496;10.020;2023-05-07T12:32:26;16.50;78.70
26051;DHT22;13825;53.496;10.020;2023-05-07T12:34:54;17.00;76.60
26051;DHT22;13825;53.496;10.020;2023-05-07T12:37:24;17.10;76.90
26051;DHT22;13825;53.496;10.020;2023-05-07T12:40:05;17.00;72.60
26051;DHT22;13825;53.496;10.020;2023-05-07T12:42:35;16.80;74.50
26051;DHT22;13825;53.496;10.020;2023-05-07T12:45:08;16.50;70.00
26051;DHT22;13825;53.496;10.020;2023-05-07T12:47:37;16.20;74.30
26051;DHT22;13825;53.496;10.020;2023-05-07T12:50:06;16.30;74.60
26051;DHT22;13825;53.496;10.020;2023-05-07T12:52:33;16.40;73.10
26051;DHT22;13825;53.496;10.020;2023-05-07T12:55:05;16.60;72.00
26051;DHT22;13825;53.496;10.020;2023-05-07T12:57:38;16.90;71.70
26051;DHT22;13825;53.496;10.020;2023-05-07T13:00:07;17.00;70.40
26051;DHT22;13825;53.496;10.020;2023-05-07T13:02:39;16.80;65.90
26051;DHT22;13825;53.496;10.020;2023-05-07T13:05:07;16.60;73.20
26051;DHT22;13825;53.496;10.020;2023-05-07T13:07:35;16.70;69.30
26051;DHT22;13825;53.496;10.020;2023-05-07T13:10:18;16.70;68.80
26051;DHT22;13825;53.496;10.020;2023-05-07T13:12:45;16.60;69.40
26051;DHT22;13825;53.496;10.020;2023-05-07T13:15:16;16.50;73.50
26051;DHT22;13825;53.496;10.020;2023-05-07T13:18:00;16.70;71.80
26051;DHT22;13825;53.496;10.020;2023-05-07T13:20:39;16.80;67.00
26051;DHT22;13825;53.496;10.020;2023-05-07T13:23:07;17.50;68.90
26051;DHT22;13825;53.496;10.020;2023-05-07T13:25:34;17.70;58.70
26051;DHT22;13825;53.496;10.020;2023-05-07T13:28:01;17.60;61.40
26051;DHT22;13825;53.496;10.020;2023-05-07T13:30:29;17.80;59.60
26051;DHT22;13825;53.496;10.020;2023-05-07T13:32:58;18.10;60.00
26051;DHT22;13825;53.496;10.020;2023-05-07T13:35:25;18.40;57.40
26051;DHT22;13825;53.496;10.020;2023-05-07T13:37:52;18.60;59.20
26051;DHT22;13825;53.496;10.020;2023-05-07T13:40:20;18.90;56.40
26051;DHT22;13825;53.496;10.020;2023-05-07T13:42:47;19.10;50.80
26051;DHT22;13825;53.496;10.020;2023-05-07T13:45:14;19.30;51.20
26051;DHT22;13825;53.496;10.020;2023-05-07T13:47:42;19.70;48.30
26051;DHT22;13825;53.496;10.020;2023-05-07T13:50:11;20.10;46.80
26051;DHT22;13825;53.496;10.020;2023-05-07T13:52:40;19.60;44.30
26051;DHT22;13825;53.496;10.020;2023-05-07T13:55:08;19.70;43.00
26051;DHT22;13825;53.496;10.020;2023-05-07T13:57:35;19.60;38.60
26051;DHT22;13825;53.496;10.020;2023-05-07T14:00:10;19.30;40.00
26051;DHT22;13825;53.496;10.020;2023-05-07T14:02:38;19.30;39.60
26051;DHT22;13825;53.496;10.020;2023-05-07T14:05:06;19.00;40.30
26051;DHT22;13825;53.496;10.020;2023-05-07T14:07:35;19.30;44.30
26051;DHT22;13825;53.496;10.020;2023-05-07T14:10:07;19.70;39.90
26051;DHT22;13825;53.496;10.020;2023-05-07T14:12:35;19.60;36.30
26051;DHT22;13825;53.496;10.020;2023-05-07T14:15:02;19.50;38.20
26051;DHT22;13825;53.496;10.020;2023-05-07T14:17:29;19.80;35.00
26051;DHT22;13825;53.496;10.020;2023-05-07T14:19:57;19.90;30.00
26051;DHT22;13825;53.496;10.020;2023-05-07T14:22:30;20.20;30.60
26051;DHT22;13825;53.496;10.020;2023-05-07T14:24:58;20.50;26.40
26051;DHT22;13825;53.496;10.020;2023-05-07T14:27:25;20.60;24.70
26051;DHT22;13825;53.496;10.020;2023-05-07T14:29:53;20.80;20.50
26051;DHT22;13825;53.496;10.020;2023-05-07T14:32:24;20.80;15.90
26051;DHT22;13825;53.496;10.020;2023-05-07T14:37:21;21.40;17.90
26051;DHT22;13825;53.496;10.020;2023-05-07T14:39:48;21.10;14.40
26051;DHT22;13825;53.496;10.020;2023-05-07T14:42:17;21.10;12.90
26051;DHT22;13825;53.496;10.020;2023-05-07T14:44:44;21.20;14.20
26051;DHT22;13825;53.496;10.020;2023-05-07T14:47:13;21.20;7.30
26051;DHT22;13825;53.496;10.020;2023-05-07T14:49:41;20.90;12.00
26051;DHT22;13825;53.496;10.020;2023-05-07T14:52:08;21.50;10.80
26051;DHT22;13825;53.496;10.020;2023-05-07T14:54:36;22.10;10.50
26051;DHT22;13825;53.496;10.020;2023-05-07T14:57:07;22.50;3.30
26051;DHT22;13825;53.496;10.020;2023-05-07T15:03:06;23.50;1.00
26051;DHT22;13825;53.496;10.020;2023-05-07T15:05:55;23.10;1.00
26051;DHT22;13825;53.496;10.020;2023-05-07T15:08:25;23.10;1.00
26051;DHT22;13825;53.496;10.020;2023-05-07T15:10:52;23.30;1.00
26051;DHT22;13825;53.496;10.020;2023-05-07T15:13:21;23.40;1.00
26051;DHT22;13825;53.496;10.020;2023-05-07T15:15:58;22.80;1.00
26051;DHT22;13825;53.496;10.020;2023-05-07T15:18:30;22.50;1.00
26051;DHT22;13825;53.496;10.020;2023-05-07T15:20:57;21.50;1.00
26051;DHT22;13825;53.496;10.020;2023-05-07T15:23:24;20.30;1.00
26051;DHT22;13825;53.496;10.020;2023-05-07T15:25:51;19.50;5.20
26051;DHT22;13825;53.496;10.020;2023-05-07T15:28:18;19.10;9.10
26051;DHT22;13825;53.496;10.020;2023-05-07T15:30:46;19.00;14.70
26051;DHT22;13825;53.496;10.020;2023-05-07T15:33:13;19.00;12.40
26051;DHT22;13825;53.496;10.020;2023-05-07T15:35:41;19.90;15.10
26051;DHT22;13825;53.496;10.020;2023-05-07T15:38:08;20.00;9.20
26051;DHT22;13825;53.496;10.020;2023-05-07T15:40:36;19.40;11.30
26051;DHT22;13825;53.496;10.020;2023-05-07T15:43:10;19.00;13.50
26051;DHT22;13825;53.496;10.020;2023-05-07T15:45:38;19.00;15.40